Time,TemperatureF,DewpointF,PressureIn,WindDirection,WindDirectionDegrees,WindSpeedMPH,WindSpeedGustMPH,Humidity,HourlyPrecipIn,Conditions,Clouds,dailyrainin,SoftwareType,DateUTC
2013-03-09 00:11:00,57.7,44.4,30.21,NE,45,3.8,3.8,61,0.00,,,0.00,meteobridge,2013-03-09 05:11:00,
2013-03-09 00:26:00,57.7,43.0,30.21,NE,45,3.8,5.4,58,0.00,,,0.00,meteobridge,2013-03-09 05:26:00,
2013-03-09 00:41:00,57.7,42.1,30.21,NE,45,5.4,6.9,56,0.00,,,0.00,meteobridge,2013-03-09 05:41:00,
2013-03-09 00:56:00,57.4,42.3,30.20,East,90,2.2,3.1,57,0.00,,,0.00,meteobridge,2013-03-09 05:56:00,
2013-03-09 01:11:00,56.8,43.2,30.19,North,0,3.1,3.1,60,0.00,,,0.00,meteobridge,2013-03-09 06:11:00,
2013-03-09 01:26:00,56.5,43.7,30.20,East,90,2.2,3.1,62,0.00,,,0.00,meteobridge,2013-03-09 06:26:00,
2013-03-09 01:41:00,55.9,43.9,30.19,NE,45,1.6,2.2,64,0.00,,,0.00,meteobridge,2013-03-09 06:41:00,
2013-03-09 01:56:00,55.0,43.9,30.19,East,90,0.7,1.6,66,0.00,,,0.00,meteobridge,2013-03-09 06:56:00,
2013-03-09 02:11:00,54.1,43.9,30.20,East,90,0.0,0.0,68,0.00,,,0.00,meteobridge,2013-03-09 07:11:00,
2013-03-09 02:26:00,53.4,44.6,30.18,SE,135,0.0,0.7,72,0.00,,,0.00,meteobridge,2013-03-09 07:26:00,
2013-03-09 02:41:00,53.1,45.0,30.17,South,180,0.7,0.7,74,0.00,,,0.00,meteobridge,2013-03-09 07:41:00,
2013-03-09 02:56:00,51.8,44.1,30.17,SW,225,0.0,0.0,75,0.00,,,0.00,meteobridge,2013-03-09 07:56:00,
2013-03-09 03:11:00,50.9,44.2,30.16,SW,225,0.0,0.0,78,0.00,,,0.00,meteobridge,2013-03-09 08:11:00,
2013-03-09 03:26:00,50.4,44.4,30.17,SW,225,0.0,0.0,80,0.00,,,0.00,meteobridge,2013-03-09 08:26:00,
2013-03-09 03:41:00,50.0,44.4,30.17,East,90,0.0,0.7,81,0.00,,,0.00,meteobridge,2013-03-09 08:41:00,
2013-03-09 03:56:00,50.2,45.1,30.17,NE,45,0.0,0.0,83,0.00,,,0.00,meteobridge,2013-03-09 08:56:00,
2013-03-09 04:11:00,50.9,46.2,30.18,NE,45,0.7,0.7,84,0.00,,,0.00,meteobridge,2013-03-09 09:11:00,
2013-03-09 04:26:00,51.8,47.5,30.18,South,180,0.7,0.7,85,0.00,,,0.00,meteobridge,2013-03-09 09:26:00,
2013-03-09 04:42:00,52.2,47.5,30.18,North,0,2.2,2.2,84,0.00,,,0.00,meteobridge,2013-03-09 09:42:00,
2013-03-09 04:57:00,51.8,47.1,30.18,NE,45,0.7,0.7,84,0.00,,,0.00,meteobridge,2013-03-09 09:57:00,
2013-03-09 05:12:00,51.3,46.9,30.18,NE,45,0.0,0.7,85,0.00,,,0.00,meteobridge,2013-03-09 10:12:00,
2013-03-09 05:27:00,51.3,47.3,30.18,North,0,0.0,1.6,86,0.00,,,0.00,meteobridge,2013-03-09 10:27:00,
2013-03-09 05:42:00,51.6,47.8,30.18,East,90,0.7,1.6,87,0.00,,,0.00,meteobridge,2013-03-09 10:42:00,
2013-03-09 05:57:00,52.2,48.0,30.18,East,90,1.6,2.2,86,0.00,,,0.00,meteobridge,2013-03-09 10:57:00,
2013-03-09 06:12:00,52.7,48.4,30.19,East,90,2.2,2.2,85,0.00,,,0.00,meteobridge,2013-03-09 11:12:00,
2013-03-09 06:27:00,52.9,48.2,30.20,NE,45,1.6,2.2,84,0.00,,,0.00,meteobridge,2013-03-09 11:27:00,
2013-03-09 06:42:00,52.7,48.0,30.20,NE,45,2.2,3.1,84,0.00,,,0.00,meteobridge,2013-03-09 11:42:00,
2013-03-09 06:57:00,52.9,47.8,30.21,NE,45,3.1,3.1,83,0.00,,,0.00,meteobridge,2013-03-09 11:57:00,
2013-03-09 07:12:00,53.2,48.2,30.20,NE,45,3.1,3.8,83,0.00,,,0.00,meteobridge,2013-03-09 12:12:00,
2013-03-09 07:27:00,54.3,48.6,30.21,NE,45,3.8,3.8,81,0.00,,,0.00,meteobridge,2013-03-09 12:27:00,
2013-03-09 07:42:00,55.4,48.7,30.22,East,90,4.5,4.5,78,0.00,,,0.00,meteobridge,2013-03-09 12:42:00,
2013-03-09 07:57:00,57.6,48.9,30.22,East,90,6.9,6.9,73,0.00,,,0.00,meteobridge,2013-03-09 12:57:00,
2013-03-09 08:12:00,58.3,48.9,30.22,North,0,4.5,4.5,71,0.00,,,0.00,meteobridge,2013-03-09 13:12:00,
2013-03-09 08:27:00,59.4,49.6,30.22,NE,45,4.5,6.9,70,0.00,,,0.00,meteobridge,2013-03-09 13:27:00,
2013-03-09 08:42:00,60.8,49.5,30.23,NE,45,5.4,6.0,66,0.00,,,0.00,meteobridge,2013-03-09 13:42:00,
2013-03-09 08:57:00,62.1,50.2,30.23,East,90,6.0,6.0,65,0.00,,,0.00,meteobridge,2013-03-09 13:57:00,
2013-03-09 09:12:00,62.6,49.5,30.24,East,90,5.4,5.4,62,0.00,,,0.00,meteobridge,2013-03-09 14:12:00,
2013-03-09 09:27:00,63.5,48.9,30.23,East,90,5.4,9.2,59,0.00,,,0.00,meteobridge,2013-03-09 14:27:00,
2013-03-09 09:42:00,64.0,48.6,30.23,East,90,7.6,8.3,57,0.00,,,0.00,meteobridge,2013-03-09 14:42:00,
2013-03-09 09:57:00,65.3,48.7,30.23,NE,45,5.4,7.6,55,0.00,,,0.00,meteobridge,2013-03-09 14:57:00,
2013-03-09 10:12:00,66.9,47.1,30.23,East,90,7.6,8.3,49,0.00,,,0.00,meteobridge,2013-03-09 15:12:00,
2013-03-09 10:27:00,68.2,47.1,30.23,ENE,68,6.9,6.9,47,0.00,,,0.00,meteobridge,2013-03-09 15:27:00,
2013-03-09 10:42:00,69.3,46.9,30.23,East,90,3.1,8.3,45,0.00,,,0.00,meteobridge,2013-03-09 15:42:00,
2013-03-09 10:57:00,69.8,46.2,30.24,NE,45,6.0,6.0,43,0.00,,,0.00,meteobridge,2013-03-09 15:57:00,
2013-03-09 11:12:00,70.0,45.1,30.23,NNE,23,4.5,6.9,41,0.00,,,0.00,meteobridge,2013-03-09 16:12:00,
2013-03-09 11:27:00,71.1,45.5,30.22,East,90,4.5,7.6,40,0.00,,,0.00,meteobridge,2013-03-09 16:27:00,
2013-03-09 11:42:00,71.4,43.7,30.21,NE,45,12.1,12.1,37,0.00,,,0.00,meteobridge,2013-03-09 16:42:00,
2013-03-09 11:57:00,71.6,43.9,30.21,North,0,6.9,6.9,37,0.00,,,0.00,meteobridge,2013-03-09 16:57:00,
2013-03-09 12:12:00,72.9,43.5,30.20,North,0,5.4,9.2,35,0.00,,,0.00,meteobridge,2013-03-09 17:12:00,
2013-03-09 12:27:00,73.6,42.6,30.20,East,90,7.6,7.6,33,0.00,,,0.00,meteobridge,2013-03-09 17:27:00,
2013-03-09 12:42:00,73.6,41.9,30.20,NE,45,6.0,6.0,32,0.00,,,0.00,meteobridge,2013-03-09 17:42:00,
2013-03-09 12:57:00,74.3,42.6,30.18,East,90,7.6,7.6,32,0.00,,,0.00,meteobridge,2013-03-09 17:57:00,
2013-03-09 13:12:00,74.8,42.3,30.18,South,180,2.2,4.5,31,0.00,,,0.00,meteobridge,2013-03-09 18:12:00,
2013-03-09 13:27:00,75.7,43.0,30.17,SE,135,3.8,3.8,31,0.00,,,0.00,meteobridge,2013-03-09 18:27:00,
2013-03-09 13:42:00,75.6,41.0,30.17,NE,45,5.4,5.4,29,0.00,,,0.00,meteobridge,2013-03-09 18:42:00,
2013-03-09 13:57:00,74.5,47.8,30.16,SW,225,1.6,6.0,39,0.00,,,0.00,meteobridge,2013-03-09 18:57:00,
2013-03-09 14:12:00,73.6,45.7,30.16,NW,315,5.4,5.4,37,0.00,,,0.00,meteobridge,2013-03-09 19:12:00,
2013-03-09 14:27:00,73.6,44.2,30.16,NE,45,4.5,4.5,35,0.00,,,0.00,meteobridge,2013-03-09 19:27:00,
2013-03-09 14:42:00,75.0,43.2,30.16,NE,45,5.4,5.4,32,0.00,,,0.00,meteobridge,2013-03-09 19:42:00,
2013-03-09 14:57:00,76.6,45.3,30.16,North,0,3.1,3.8,33,0.00,,,0.00,meteobridge,2013-03-09 19:57:00,
2013-03-09 15:12:00,78.6,45.5,30.16,West,270,5.4,5.4,31,0.00,,,0.00,meteobridge,2013-03-09 20:12:00,
2013-03-09 15:27:00,78.8,44.8,30.15,WNW,293,5.4,6.9,30,0.00,,,0.00,meteobridge,2013-03-09 20:27:00,
2013-03-09 15:42:00,75.2,45.0,30.16,NW,315,3.8,7.6,34,0.00,,,0.00,meteobridge,2013-03-09 20:42:00,
2013-03-09 15:57:00,75.4,45.9,30.14,NW,315,6.0,6.0,35,0.00,,,0.00,meteobridge,2013-03-09 20:57:00,
2013-03-09 16:12:00,73.4,46.9,30.14,NW,315,5.4,7.6,39,0.00,,,0.00,meteobridge,2013-03-09 21:12:00,
2013-03-09 16:27:00,75.4,45.9,30.15,NW,315,5.4,6.9,35,0.00,,,0.00,meteobridge,2013-03-09 21:27:00,
2013-03-09 16:42:00,72.9,49.6,30.15,NE,45,6.9,6.9,44,0.00,,,0.00,meteobridge,2013-03-09 21:42:00,
2013-03-09 16:58:00,70.3,51.4,30.15,West,270,3.8,4.5,51,0.00,,,0.00,meteobridge,2013-03-09 21:58:00,
2013-03-09 17:13:00,68.9,50.5,30.14,North,0,3.8,4.5,52,0.00,,,0.00,meteobridge,2013-03-09 22:13:00,
2013-03-09 17:28:00,68.9,52.0,30.14,North,0,6.9,6.9,55,0.00,,,0.00,meteobridge,2013-03-09 22:28:00,
2013-03-09 17:43:00,67.8,52.5,30.15,NW,315,5.4,5.4,58,0.00,,,0.00,meteobridge,2013-03-09 22:43:00,
2013-03-09 17:58:00,67.3,53.4,30.14,North,0,2.2,3.8,61,0.00,,,0.00,meteobridge,2013-03-09 22:58:00,
2013-03-09 18:13:00,67.5,54.5,30.15,North,0,4.5,4.5,63,0.00,,,0.00,meteobridge,2013-03-09 23:13:00,
2013-03-09 18:28:00,66.6,54.9,30.16,NW,315,3.1,3.1,66,0.00,,,0.00,meteobridge,2013-03-09 23:28:00,
2013-03-09 18:43:00,65.8,55.4,30.16,WNW,293,2.2,3.1,69,0.00,,,0.00,meteobridge,2013-03-09 23:43:00,
2013-03-09 18:58:00,65.3,54.9,30.17,West,270,1.6,1.6,69,0.00,,,0.00,meteobridge,2013-03-09 23:58:00,
2013-03-09 19:13:00,65.7,55.2,30.17,West,270,0.7,0.7,69,0.00,,,0.00,meteobridge,2013-03-10 00:13:00,
2013-03-09 19:28:00,65.5,55.0,30.18,West,270,0.7,1.6,69,0.00,,,0.00,meteobridge,2013-03-10 00:28:00,
2013-03-09 19:43:00,65.7,54.9,30.18,NNE,23,1.6,1.6,68,0.00,,,0.00,meteobridge,2013-03-10 00:43:00,
2013-03-09 19:58:00,66.4,53.8,30.19,East,90,5.4,5.4,64,0.00,,,0.00,meteobridge,2013-03-10 00:58:00,
2013-03-09 20:13:00,66.4,53.4,30.19,North,0,3.1,4.5,63,0.00,,,0.00,meteobridge,2013-03-10 01:13:00,
2013-03-09 20:28:00,66.0,53.4,30.18,NE,45,3.1,3.1,64,0.00,,,0.00,meteobridge,2013-03-10 01:28:00,
2013-03-09 20:43:00,65.7,51.4,30.19,North,0,2.2,2.2,60,0.00,,,0.00,meteobridge,2013-03-10 01:43:00,
2013-03-09 20:58:00,65.3,50.5,30.19,East,90,2.2,2.2,59,0.00,,,0.00,meteobridge,2013-03-10 01:58:00,
2013-03-09 21:13:00,65.3,51.1,30.19,South,180,2.2,3.8,60,0.00,,,0.00,meteobridge,2013-03-10 02:13:00,
2013-03-09 21:28:00,65.5,50.4,30.20,SE,135,3.1,3.1,58,0.00,,,0.00,meteobridge,2013-03-10 02:28:00,
2013-03-09 21:43:00,65.3,50.2,30.20,ESE,113,6.0,6.0,58,0.00,,,0.00,meteobridge,2013-03-10 02:43:00,
2013-03-09 21:58:00,64.8,50.2,30.20,South,180,3.8,5.4,59,0.00,,,0.00,meteobridge,2013-03-10 02:58:00,
2013-03-09 22:13:00,64.2,50.0,30.19,East,90,5.4,6.9,60,0.00,,,0.00,meteobridge,2013-03-10 03:13:00,
2013-03-09 22:28:00,63.9,50.2,30.20,East,90,3.8,6.0,61,0.00,,,0.00,meteobridge,2013-03-10 03:28:00,
2013-03-09 22:43:00,63.5,50.2,30.19,SE,135,9.8,9.8,62,0.00,,,0.00,meteobridge,2013-03-10 03:43:00,
2013-03-09 22:58:00,63.3,50.5,30.19,SE,135,6.9,6.9,63,0.00,,,0.00,meteobridge,2013-03-10 03:58:00,
2013-03-09 23:13:00,63.1,50.4,30.20,SE,135,6.9,7.6,63,0.00,,,0.00,meteobridge,2013-03-10 04:13:00,
2013-03-09 23:28:00,62.8,50.4,30.20,SE,135,7.6,7.6,64,0.00,,,0.00,meteobridge,2013-03-10 04:28:00,
2013-03-09 23:43:00,62.6,50.2,30.19,East,90,3.8,3.8,64,0.00,,,0.00,meteobridge,2013-03-10 04:43:00,
2013-03-09 23:58:00,62.2,50.4,30.18,East,90,5.4,5.4,65,0.00,,,0.00,meteobridge,2013-03-10 04:58:00,